createdAt,value
2023-05-06T00:01:29.275Z,11.23
2023-05-06T00:03:56.588Z,9.10
2023-05-06T00:06:23.787Z,9.18
2023-05-06T00:08:50.994Z,12.48
2023-05-06T00:11:18.014Z,17.15
2023-05-06T00:13:45.159Z,12.93
2023-05-06T00:16:12.298Z,18.05
2023-05-06T00:18:39.599Z,13.32
2023-05-06T00:21:06.673Z,12.80
2023-05-06T00:23:33.725Z,13.05
2023-05-06T00:26:00.875Z,11.45
2023-05-06T00:28:27.995Z,10.63
2023-05-06T00:30:55.107Z,10.32
2023-05-06T00:33:24.379Z,13.68
2023-05-06T00:35:52.676Z,13.73
2023-05-06T00:38:19.725Z,15.13
2023-05-06T00:40:46.807Z,12.93
2023-05-06T00:43:13.922Z,15.55
2023-05-06T00:45:41.027Z,11.52
2023-05-06T00:48:08.424Z,14.52
2023-05-06T00:50:36.042Z,14.80
2023-05-06T00:53:04.277Z,10.60
2023-05-06T00:55:31.879Z,12.20
2023-05-06T00:57:58.957Z,9.23
2023-05-06T01:00:26.306Z,10.85
2023-05-06T01:02:53.646Z,9.80
2023-05-06T01:05:22.381Z,11.50
2023-05-06T01:07:49.550Z,12.80
2023-05-06T01:10:24.616Z,11.65
2023-05-06T01:13:07.791Z,11.02
2023-05-06T01:15:37.731Z,12.98
2023-05-06T01:18:08.842Z,11.95
2023-05-06T01:20:38.253Z,14.83
2023-05-06T01:23:10.762Z,12.80
2023-05-06T01:25:37.896Z,12.30
2023-05-06T01:28:07.479Z,10.68
2023-05-06T01:30:36.650Z,12.38
2023-05-06T01:33:30.203Z,10.73
2023-05-06T01:36:15.838Z,9.52
2023-05-06T01:38:50.208Z,9.65
2023-05-06T01:41:17.890Z,9.93
2023-05-06T01:43:45.863Z,10.80
2023-05-06T01:46:15.817Z,9.05
2023-05-06T01:48:43.670Z,12.02
2023-05-06T01:51:10.714Z,11.85
2023-05-06T01:53:37.845Z,9.10
2023-05-06T01:56:05.239Z,11.20
2023-05-06T01:58:32.405Z,9.40
2023-05-06T02:00:59.463Z,11.20
2023-05-06T02:03:26.908Z,9.75
2023-05-06T02:05:54.045Z,10.18
2023-05-06T02:08:21.426Z,9.93
2023-05-06T02:10:48.610Z,10.48
2023-05-06T02:13:15.975Z,13.32
2023-05-06T02:15:43.251Z,9.77
2023-05-06T02:18:11.281Z,12.65
2023-05-06T02:20:38.361Z,12.65
2023-05-06T02:23:05.357Z,11.95
2023-05-06T02:25:32.377Z,15.32
2023-05-06T02:27:59.475Z,18.67
2023-05-06T02:30:26.617Z,15.85
2023-05-06T02:32:53.719Z,18.17
2023-05-06T02:35:20.933Z,16.17
2023-05-06T02:37:47.990Z,13.32
2023-05-06T02:40:15.046Z,20.17
2023-05-06T02:42:42.131Z,16.30
2023-05-06T02:45:09.610Z,14.52
2023-05-06T02:47:37.182Z,21.55
2023-05-06T02:50:04.309Z,17.02
2023-05-06T02:52:32.490Z,24.98
2023-05-06T02:54:59.598Z,31.58
2023-05-06T02:57:27.101Z,25.45
2023-05-06T02:59:57.147Z,39.40
2023-05-06T03:02:24.251Z,76.72
2023-05-06T03:04:51.751Z,85.57
2023-05-06T03:07:18.808Z,35.88
2023-05-06T03:09:46.261Z,36.85
2023-05-06T03:12:13.708Z,53.47
2023-05-06T03:14:40.743Z,30.30
2023-05-06T03:17:07.969Z,33.53
2023-05-06T03:19:35.022Z,30.13
2023-05-06T03:22:02.057Z,32.28
2023-05-06T03:24:29.161Z,53.55
2023-05-06T03:26:58.533Z,20.58
2023-05-06T03:29:26.186Z,21.33
2023-05-06T03:31:53.395Z,32.67
2023-05-06T03:34:20.904Z,26.60
2023-05-06T03:36:47.950Z,19.02
2023-05-06T03:39:15.265Z,32.47
2023-05-06T03:41:42.356Z,41.03
2023-05-06T03:44:09.440Z,20.55
2023-05-06T03:46:36.708Z,30.50
2023-05-06T03:49:03.765Z,21.85
2023-05-06T03:51:30.790Z,35.85
2023-05-06T03:53:57.827Z,48.05
2023-05-06T03:56:24.882Z,29.88
2023-05-06T03:58:53.784Z,25.98
2023-05-06T04:01:21.774Z,76.00
2023-05-06T04:03:48.938Z,42.85
2023-05-06T04:06:15.976Z,37.25
2023-05-06T04:08:43.103Z,30.83
2023-05-06T04:11:10.266Z,31.85
2023-05-06T04:13:37.544Z,45.70
2023-05-06T04:16:05.618Z,30.33
2023-05-06T04:18:34.220Z,38.28
2023-05-06T04:21:01.334Z,27.95
2023-05-06T04:23:28.454Z,38.38
2023-05-06T04:25:55.545Z,42.25
2023-05-06T04:28:22.616Z,20.17
2023-05-06T04:30:49.762Z,21.20
2023-05-06T04:33:17.005Z,34.35
2023-05-06T04:35:50.641Z,22.27
2023-05-06T04:38:18.365Z,28.58
2023-05-06T04:40:45.503Z,29.67
2023-05-06T04:43:12.889Z,65.60
2023-05-06T04:45:42.913Z,27.77
2023-05-06T04:48:10.058Z,34.72
2023-05-06T04:50:37.117Z,37.50
2023-05-06T04:53:04.132Z,50.70
2023-05-06T04:55:33.319Z,70.60
2023-05-06T04:58:00.402Z,24.50
2023-05-06T05:00:27.835Z,42.70
2023-05-06T05:02:54.992Z,24.58
2023-05-06T05:05:22.423Z,32.83
2023-05-06T05:07:49.468Z,33.47
2023-05-06T05:10:16.575Z,36.03
2023-05-06T05:12:43.668Z,32.92
2023-05-06T05:15:11.705Z,20.77
2023-05-06T05:17:39.056Z,21.38
2023-05-06T05:20:06.484Z,17.58
2023-05-06T05:22:33.513Z,19.90
2023-05-06T05:25:00.630Z,18.67
2023-05-06T05:27:27.925Z,16.83
2023-05-06T05:29:54.992Z,18.85
2023-05-06T05:32:22.135Z,21.05
2023-05-06T05:34:49.329Z,16.10
2023-05-06T05:37:16.562Z,17.17
2023-05-06T05:39:43.670Z,13.65
2023-05-06T05:42:10.837Z,26.35
2023-05-06T05:44:37.993Z,15.23
2023-05-06T05:47:06.535Z,15.82
2023-05-06T05:49:33.660Z,14.85
2023-05-06T05:52:00.701Z,16.20
2023-05-06T05:54:27.796Z,21.80
2023-05-06T05:56:54.938Z,17.08
2023-05-06T05:59:21.972Z,17.25
2023-05-06T06:01:48.983Z,23.25
2023-05-06T06:04:16.110Z,16.77
2023-05-06T06:06:43.544Z,13.65
2023-05-06T06:09:11.171Z,13.88
2023-05-06T06:11:38.286Z,13.10
2023-05-06T06:14:05.471Z,18.95
2023-05-06T06:16:32.761Z,14.80
2023-05-06T06:18:59.999Z,15.95
2023-05-06T06:21:27.615Z,11.30
2023-05-06T06:23:54.690Z,8.07
2023-05-06T06:26:21.980Z,6.05
2023-05-06T06:28:49.336Z,6.85
2023-05-06T06:31:16.574Z,5.50
2023-05-06T06:33:44.247Z,5.45
2023-05-06T06:36:11.489Z,4.65
2023-05-06T06:38:38.665Z,5.07
2023-05-06T06:41:06.040Z,5.45
2023-05-06T06:43:34.440Z,6.20
2023-05-06T06:46:01.833Z,4.88
2023-05-06T06:48:29.456Z,5.38
2023-05-06T06:50:56.656Z,6.80
2023-05-06T06:53:23.760Z,6.68
2023-05-06T06:55:51.161Z,5.13
2023-05-06T06:58:18.174Z,5.55
2023-05-06T07:00:45.298Z,6.38
2023-05-06T07:03:15.812Z,5.82
2023-05-06T07:05:43.060Z,5.75
2023-05-06T07:08:10.879Z,6.43
2023-05-06T07:10:38.917Z,5.13
2023-05-06T07:13:06.188Z,5.45
2023-05-06T07:15:33.284Z,6.65
2023-05-06T07:18:00.462Z,5.47
2023-05-06T07:20:27.780Z,5.00
2023-05-06T07:22:54.933Z,4.22
2023-05-06T07:25:22.131Z,6.72
2023-05-06T07:27:49.274Z,5.68
2023-05-06T07:30:16.556Z,8.05
2023-05-06T07:32:43.700Z,5.18
2023-05-06T07:35:10.857Z,4.70
2023-05-06T07:37:38.082Z,5.28
2023-05-06T07:40:05.543Z,5.63
2023-05-06T07:42:32.666Z,5.60
2023-05-06T07:44:59.804Z,5.65
2023-05-06T07:47:28.135Z,7.28
2023-05-06T07:49:55.881Z,5.13
2023-05-06T07:52:23.372Z,5.50
2023-05-06T07:54:50.519Z,5.18
2023-05-06T07:57:17.885Z,6.15
2023-05-06T07:59:47.893Z,6.72
2023-05-06T08:02:15.282Z,6.50
2023-05-06T08:04:42.972Z,6.82
2023-05-06T08:07:11.117Z,8.00
2023-05-06T08:09:38.365Z,8.32
2023-05-06T08:12:05.731Z,7.18
2023-05-06T08:14:32.797Z,7.93
2023-05-06T08:16:59.905Z,6.82
2023-05-06T08:19:28.158Z,8.18
2023-05-06T08:21:55.370Z,8.38
2023-05-06T08:24:22.473Z,8.15
2023-05-06T08:26:50.944Z,6.50
2023-05-06T08:29:18.064Z,8.98
2023-05-06T08:31:45.259Z,7.57
2023-05-06T08:34:12.425Z,6.45
2023-05-06T08:36:39.485Z,9.40
2023-05-06T08:39:06.622Z,9.70
2023-05-06T08:41:35.449Z,9.93
2023-05-06T08:44:02.847Z,9.15
2023-05-06T08:46:31.113Z,8.90
2023-05-06T08:48:58.835Z,8.80
2023-05-06T08:51:28.609Z,7.85
2023-05-06T08:53:56.320Z,9.43
2023-05-06T08:56:24.924Z,9.40
2023-05-06T08:58:52.326Z,12.63
2023-05-06T09:01:19.493Z,8.55
2023-05-06T09:03:47.987Z,7.38
2023-05-06T09:06:15.165Z,7.72
2023-05-06T09:08:42.319Z,11.00
2023-05-06T09:11:21.978Z,9.45
2023-05-06T09:13:49.019Z,9.35
2023-05-06T09:16:31.409Z,9.32
2023-05-06T09:18:59.436Z,9.00
2023-05-06T09:21:39.512Z,12.00
2023-05-06T09:24:07.494Z,8.68
2023-05-06T09:26:35.881Z,9.10
2023-05-06T09:29:03.259Z,10.98
2023-05-06T09:31:31.036Z,8.88
2023-05-06T09:33:59.437Z,9.15
2023-05-06T09:36:27.654Z,10.07
2023-05-06T09:38:57.715Z,8.95
2023-05-06T09:41:25.818Z,10.13
2023-05-06T09:43:54.019Z,8.38
2023-05-06T09:46:25.005Z,8.20
2023-05-06T09:48:53.768Z,9.82
2023-05-06T09:51:21.229Z,9.15
2023-05-06T09:53:48.774Z,10.00
2023-05-06T09:56:16.587Z,9.15
2023-05-06T09:58:43.985Z,9.50
2023-05-06T10:01:17.135Z,9.07
2023-05-06T10:03:51.892Z,11.65
2023-05-06T10:06:20.276Z,13.10
2023-05-06T10:08:48.126Z,9.80
2023-05-06T10:11:16.138Z,11.07
2023-05-06T10:13:43.664Z,10.10
2023-05-06T10:16:12.796Z,10.85
2023-05-06T10:18:42.097Z,11.95
2023-05-06T10:21:15.863Z,9.95
2023-05-06T10:23:52.283Z,10.00
2023-05-06T10:26:20.798Z,10.43
2023-05-06T10:28:49.835Z,10.25
2023-05-06T10:31:17.074Z,9.52
2023-05-06T10:33:46.069Z,10.95
2023-05-06T10:36:23.548Z,10.35
2023-05-06T10:38:54.813Z,11.10
2023-05-06T10:41:22.331Z,9.10
2023-05-06T10:43:56.502Z,9.02
2023-05-06T10:46:27.867Z,10.68
2023-05-06T10:51:22.101Z,9.63
2023-05-06T10:54:07.082Z,9.93
2023-05-06T10:56:36.097Z,8.60
2023-05-06T10:59:08.095Z,9.00
2023-05-06T11:01:36.608Z,9.77
2023-05-06T11:04:11.287Z,9.70
2023-05-06T11:06:41.186Z,9.40
2023-05-06T11:09:19.416Z,7.00
2023-05-06T11:12:00.436Z,9.85
2023-05-06T11:14:37.771Z,7.68
2023-05-06T11:17:27.940Z,9.50
2023-05-06T11:20:21.252Z,7.95
2023-05-06T11:22:48.407Z,10.25
2023-05-06T11:25:16.746Z,7.32
2023-05-06T11:27:43.778Z,8.35
2023-05-06T11:30:15.004Z,10.10
2023-05-06T11:32:43.867Z,7.47
2023-05-06T11:35:12.217Z,7.30
2023-05-06T11:37:39.380Z,7.50
2023-05-06T11:40:14.540Z,5.85
2023-05-06T11:42:41.793Z,7.03
2023-05-06T11:45:09.324Z,6.50
2023-05-06T11:47:36.537Z,8.98
2023-05-06T11:50:09.861Z,7.13
2023-05-06T11:52:37.294Z,9.23
2023-05-06T11:55:09.820Z,10.20
2023-05-06T11:57:36.902Z,7.93
2023-05-06T12:00:05.088Z,6.47
2023-05-06T12:02:32.352Z,6.07
2023-05-06T12:04:59.576Z,8.25
2023-05-06T12:07:26.634Z,7.50
2023-05-06T12:09:53.841Z,8.30
2023-05-06T12:12:22.909Z,10.18
2023-05-06T12:14:53.830Z,5.68
2023-05-06T12:17:21.335Z,4.80
2023-05-06T12:19:48.475Z,6.63
2023-05-06T12:22:18.660Z,6.88
2023-05-06T12:24:46.259Z,7.63
2023-05-06T12:27:13.421Z,8.18
2023-05-06T12:29:40.535Z,6.55
2023-05-06T12:32:09.279Z,6.13
2023-05-06T12:34:38.192Z,6.47
2023-05-06T12:37:05.640Z,7.20
2023-05-06T12:39:39.502Z,6.82
2023-05-06T12:42:06.898Z,7.60
2023-05-06T12:44:38.066Z,6.80
2023-05-06T12:47:07.395Z,7.28
2023-05-06T12:49:53.149Z,8.13
2023-05-06T12:52:21.521Z,6.78
2023-05-06T12:54:48.959Z,6.32
2023-05-06T12:57:16.252Z,9.00
2023-05-06T12:59:44.258Z,5.35
2023-05-06T13:02:11.505Z,7.50
2023-05-06T13:04:38.799Z,8.32
2023-05-06T13:07:06.207Z,8.15
2023-05-06T13:09:33.306Z,6.85
2023-05-06T13:12:00.457Z,16.67
2023-05-06T13:14:27.520Z,6.18
2023-05-06T13:16:54.860Z,9.23
2023-05-06T13:19:32.376Z,6.32
2023-05-06T13:22:00.520Z,5.95
2023-05-06T13:24:27.809Z,6.30
2023-05-06T13:26:56.370Z,5.28
2023-05-06T13:29:23.755Z,7.85
2023-05-06T13:31:51.689Z,8.73
2023-05-06T13:34:19.090Z,5.57
2023-05-06T13:36:47.813Z,8.82
2023-05-06T13:39:16.014Z,6.13
2023-05-06T13:41:43.373Z,10.32
2023-05-06T13:44:10.531Z,6.95
2023-05-06T13:46:37.709Z,7.05
2023-05-06T13:49:04.807Z,5.53
2023-05-06T13:51:33.510Z,9.23
2023-05-06T13:54:00.982Z,6.45
2023-05-06T13:56:28.066Z,6.93
2023-05-06T13:58:55.903Z,5.57
2023-05-06T14:01:23.355Z,8.13
2023-05-06T14:03:50.737Z,7.43
2023-05-06T14:06:18.033Z,9.75
2023-05-06T14:08:45.291Z,7.57
2023-05-06T14:11:12.447Z,7.22
2023-05-06T14:13:40.321Z,9.88
2023-05-06T14:16:07.712Z,7.15
2023-05-06T14:18:34.994Z,8.23
2023-05-06T14:21:02.229Z,10.45
2023-05-06T14:23:29.333Z,8.80
2023-05-06T14:25:56.392Z,8.25
2023-05-06T14:28:23.721Z,9.15
2023-05-06T14:30:51.468Z,7.95
2023-05-06T14:33:18.722Z,8.95
2023-05-06T14:35:51.211Z,7.97
2023-05-06T14:38:18.949Z,7.55
2023-05-06T14:40:46.204Z,8.73
2023-05-06T14:43:13.331Z,8.80
2023-05-06T14:45:40.563Z,7.65
2023-05-06T14:48:07.774Z,8.02
2023-05-06T14:50:35.157Z,8.95
2023-05-06T14:53:03.765Z,14.70
2023-05-06T14:55:31.262Z,8.90
2023-05-06T14:57:58.390Z,7.97
2023-05-06T15:00:25.686Z,9.15
2023-05-06T15:02:52.817Z,10.85
2023-05-06T15:05:20.002Z,9.55
2023-05-06T15:07:47.049Z,7.97
2023-05-06T15:10:14.230Z,8.43
2023-05-06T15:12:41.437Z,8.10
2023-05-06T15:15:09.034Z,7.93
2023-05-06T15:17:36.380Z,8.70
2023-05-06T15:20:04.487Z,7.82
2023-05-06T15:22:31.614Z,7.60
2023-05-06T15:24:58.782Z,6.60
2023-05-06T15:27:25.827Z,8.30
2023-05-06T15:29:52.889Z,6.30
2023-05-06T15:32:20.039Z,7.25
2023-05-06T15:34:47.416Z,7.32
2023-05-06T15:37:19.138Z,8.68
2023-05-06T15:39:47.793Z,7.40
2023-05-06T15:42:15.022Z,7.25
2023-05-06T15:44:42.310Z,7.60
2023-05-06T15:47:09.655Z,6.82
2023-05-06T15:49:51.418Z,5.90
2023-05-06T15:52:21.144Z,7.05
2023-05-06T15:54:50.003Z,6.60
2023-05-06T15:57:17.491Z,5.68
2023-05-06T15:59:44.572Z,6.22
2023-05-06T16:02:26.806Z,6.88
2023-05-06T16:04:54.928Z,7.40
2023-05-06T16:07:22.217Z,7.30
2023-05-06T16:09:50.162Z,7.22
2023-05-06T16:12:17.366Z,7.55
2023-05-06T16:14:44.749Z,9.63
2023-05-06T16:17:11.849Z,14.32
2023-05-06T16:19:40.581Z,12.18
2023-05-06T16:22:07.614Z,11.52
2023-05-06T16:24:34.724Z,10.95
2023-05-06T16:27:02.384Z,9.60
2023-05-06T16:29:29.379Z,10.43
2023-05-06T16:31:56.624Z,10.85
2023-05-06T16:34:25.420Z,9.43
2023-05-06T16:36:52.523Z,10.38
2023-05-06T16:39:19.644Z,13.80
2023-05-06T16:41:47.195Z,10.80
2023-05-06T16:44:14.243Z,11.68
2023-05-06T16:46:41.354Z,10.95
2023-05-06T16:49:08.417Z,9.00
2023-05-06T16:51:35.593Z,10.23
2023-05-06T16:54:03.123Z,8.18
2023-05-06T16:56:43.810Z,15.57
2023-05-06T16:59:15.582Z,8.45
2023-05-06T17:01:42.634Z,11.45
2023-05-06T17:04:10.186Z,10.52
2023-05-06T17:06:37.399Z,8.95
2023-05-06T17:09:04.548Z,11.70
2023-05-06T17:11:31.718Z,10.27
2023-05-06T17:13:58.870Z,8.82
2023-05-06T17:16:26.019Z,9.60
2023-05-06T17:18:53.103Z,11.43
2023-05-06T17:21:21.345Z,8.82
2023-05-06T17:23:48.517Z,10.98
2023-05-06T17:26:17.690Z,11.65
2023-05-06T17:28:45.191Z,9.80
2023-05-06T17:31:12.436Z,9.70
2023-05-06T17:33:39.555Z,9.65
2023-05-06T17:36:07.020Z,9.73
2023-05-06T17:38:34.069Z,9.73
2023-05-06T17:41:01.249Z,11.13
2023-05-06T17:43:28.665Z,10.80
2023-05-06T17:45:55.938Z,9.10
2023-05-06T17:48:23.228Z,8.65
2023-05-06T17:50:50.305Z,11.30
2023-05-06T17:53:17.345Z,9.32
2023-05-06T17:55:44.393Z,9.73
2023-05-06T17:58:11.774Z,9.25
2023-05-06T18:00:39.089Z,8.98
2023-05-06T18:03:06.324Z,9.50
2023-05-06T18:05:33.552Z,10.05
2023-05-06T18:08:00.763Z,10.10
2023-05-06T18:10:27.977Z,8.48
2023-05-06T18:12:56.916Z,9.52
2023-05-06T18:15:24.292Z,10.32
2023-05-06T18:17:51.533Z,8.52
2023-05-06T18:20:18.771Z,8.25
2023-05-06T18:22:46.482Z,7.78
2023-05-06T18:25:13.784Z,7.13
2023-05-06T18:27:40.975Z,8.05
2023-05-06T18:30:08.906Z,9.07
2023-05-06T18:32:36.094Z,12.15
2023-05-06T18:35:03.321Z,9.57
2023-05-06T18:37:30.476Z,8.13
2023-05-06T18:39:57.564Z,7.68
2023-05-06T18:42:24.637Z,9.77
2023-05-06T18:44:51.802Z,7.78
2023-05-06T18:47:22.135Z,7.68
2023-05-06T18:49:49.275Z,7.47
2023-05-06T18:52:17.652Z,7.55
2023-05-06T18:54:44.795Z,7.28
2023-05-06T18:57:12.416Z,8.73
2023-05-06T18:59:41.788Z,7.60
2023-05-06T19:02:09.028Z,8.85
2023-05-06T19:04:36.271Z,7.97
2023-05-06T19:07:06.246Z,7.65
2023-05-06T19:09:37.311Z,7.10
2023-05-06T19:12:04.832Z,6.95
2023-05-06T19:14:35.119Z,13.77
2023-05-06T19:17:03.554Z,9.10
2023-05-06T19:19:31.296Z,9.98
2023-05-06T19:21:59.732Z,8.25
2023-05-06T19:24:26.882Z,6.93
2023-05-06T19:26:53.908Z,6.68
2023-05-06T19:29:21.141Z,10.85
2023-05-06T19:31:48.163Z,9.38
2023-05-06T19:34:15.721Z,7.90
2023-05-06T19:36:42.857Z,9.52
2023-05-06T19:39:09.923Z,7.63
2023-05-06T19:41:37.092Z,14.02
2023-05-06T19:44:04.182Z,11.18
2023-05-06T19:46:31.300Z,8.40
2023-05-06T19:48:58.350Z,8.80
2023-05-06T19:51:25.556Z,8.80
2023-05-06T19:53:52.615Z,10.23
2023-05-06T19:56:20.238Z,9.63
2023-05-06T19:58:47.368Z,12.00
2023-05-06T20:01:14.870Z,9.82
2023-05-06T20:03:42.172Z,10.77
2023-05-06T20:06:09.381Z,10.23
2023-05-06T20:08:36.440Z,10.90
2023-05-06T20:11:03.486Z,9.88
2023-05-06T20:13:30.692Z,10.88
2023-05-06T20:15:57.821Z,9.80
2023-05-06T20:18:25.460Z,10.20
2023-05-06T20:20:52.534Z,15.48
2023-05-06T20:23:19.599Z,11.57
2023-05-06T20:25:46.698Z,14.43
2023-05-06T20:28:13.736Z,10.48
2023-05-06T20:30:40.825Z,12.98
2023-05-06T20:33:08.083Z,12.90
2023-05-06T20:35:38.329Z,12.68
2023-05-06T20:38:06.514Z,14.90
2023-05-06T20:40:35.485Z,14.50
2023-05-06T20:43:04.262Z,15.98
2023-05-06T20:45:31.669Z,14.02
2023-05-06T20:47:59.091Z,13.68
2023-05-06T20:50:28.705Z,17.90
2023-05-06T20:52:56.042Z,17.40
2023-05-06T20:55:23.689Z,15.00
2023-05-06T20:57:51.059Z,18.55
2023-05-06T21:00:19.122Z,15.68
2023-05-06T21:02:46.488Z,15.05
2023-05-06T21:05:14.108Z,16.30
2023-05-06T21:07:41.413Z,16.42
2023-05-06T21:10:09.829Z,15.45
2023-05-06T21:12:38.428Z,15.93
2023-05-06T21:15:06.231Z,14.98
2023-05-06T21:17:33.396Z,14.35
2023-05-06T21:20:01.392Z,16.00
2023-05-06T21:22:28.898Z,15.98
2023-05-06T21:24:56.084Z,16.20
2023-05-06T21:27:25.101Z,14.98
2023-05-06T21:29:52.492Z,15.02
2023-05-06T21:32:19.725Z,16.05
2023-05-06T21:34:47.050Z,14.77
2023-05-06T21:37:14.250Z,15.55
2023-05-06T21:39:41.391Z,16.02
2023-05-06T21:42:08.602Z,14.15
2023-05-06T21:44:35.972Z,14.93
2023-05-06T21:47:04.407Z,13.65
2023-05-06T21:49:31.434Z,17.23
2023-05-06T21:51:58.659Z,14.30
2023-05-06T21:54:26.324Z,15.88
2023-05-06T21:56:53.332Z,14.40
2023-05-06T21:59:20.412Z,16.67
2023-05-06T22:01:48.060Z,35.03
2023-05-06T22:04:19.967Z,14.65
2023-05-06T22:09:14.003Z,17.67
2023-05-06T22:11:41.293Z,17.98
2023-05-06T22:14:09.425Z,17.08
2023-05-06T22:16:37.884Z,18.88
2023-05-06T22:19:05.395Z,15.85
2023-05-06T22:21:33.823Z,18.17
2023-05-06T22:24:01.087Z,16.25
2023-05-06T22:26:28.268Z,17.70
2023-05-06T22:28:58.303Z,18.48
2023-05-06T22:31:25.561Z,17.23
2023-05-06T22:33:55.474Z,18.83
2023-05-06T22:36:23.018Z,16.65
2023-05-06T22:38:50.127Z,18.13
2023-05-06T22:41:20.323Z,21.95
2023-05-06T22:43:47.468Z,19.02
2023-05-06T22:46:14.672Z,19.10
2023-05-06T22:48:44.589Z,20.27
2023-05-06T22:51:12.250Z,18.75
2023-05-06T22:53:39.254Z,20.13
2023-05-06T22:56:06.494Z,18.25
2023-05-06T22:58:33.525Z,18.30
2023-05-06T23:01:01.787Z,17.85
2023-05-06T23:03:29.110Z,19.67
2023-05-06T23:05:56.381Z,20.20
2023-05-06T23:08:23.552Z,21.85
2023-05-06T23:10:50.589Z,23.90
2023-05-06T23:13:17.890Z,21.25
2023-05-06T23:15:44.924Z,22.58
2023-05-06T23:18:12.022Z,21.60
2023-05-06T23:20:39.330Z,22.15
2023-05-06T23:23:10.517Z,25.80
2023-05-06T23:25:37.581Z,23.85
2023-05-06T23:28:04.754Z,23.52
2023-05-06T23:30:31.886Z,24.33
2023-05-06T23:32:59.089Z,26.13
2023-05-06T23:35:26.285Z,21.73
2023-05-06T23:37:53.366Z,23.17
2023-05-06T23:40:20.664Z,21.08
2023-05-06T23:42:47.731Z,23.50
2023-05-06T23:45:14.754Z,26.55
2023-05-06T23:47:42.209Z,22.80
2023-05-06T23:50:09.702Z,24.52
2023-05-06T23:52:38.126Z,24.73
2023-05-06T23:55:05.852Z,19.92
2023-05-06T23:57:32.976Z,26.20
2023-05-06T23:59:59.992Z,26.10
